sensor_id;sensor_type;location;lat;lon;timestamp;P1;durP1;ratioP1;P2;durP2;ratioP2
50853;SDS011;44154;45.506;-122.806;2022-11-27T00:02:05;0.50;;;0.30;;
50853;SDS011;44154;45.506;-122.806;2022-11-27T00:04:31;0.52;;;0.32;;
50853;SDS011;44154;45.506;-122.806;2022-11-27T00:06:58;0.50;;;0.40;;
50853;SDS011;44154;45.506;-122.806;2022-11-27T00:09:24;0.40;;;0.22;;
50853;SDS011;44154;45.506;-122.806;2022-11-27T00:11:50;0.50;;;0.30;;
50853;SDS011;44154;45.506;-122.806;2022-11-27T00:14:16;0.30;;;0.20;;
50853;SDS011;44154;45.506;-122.806;2022-11-27T00:16:43;0.40;;;0.20;;
50853;SDS011;44154;45.506;-122.806;2022-11-27T00:19:10;0.65;;;0.40;;
50853;SDS011;44154;45.506;-122.806;2022-11-27T00:21:36;0.52;;;0.30;;
50853;SDS011;44154;45.506;-122.806;2022-11-27T00:24:04;0.47;;;0.38;;
50853;SDS011;44154;45.506;-122.806;2022-11-27T00:26:32;0.50;;;0.30;;
50853;SDS011;44154;45.506;-122.806;2022-11-27T00:28:59;0.70;;;0.50;;
50853;SDS011;44154;45.506;-122.806;2022-11-27T00:31:27;0.70;;;0.50;;
50853;SDS011;44154;45.506;-122.806;2022-11-27T00:33:56;0.60;;;0.50;;
50853;SDS011;44154;45.506;-122.806;2022-11-27T00:36:23;0.70;;;0.40;;
50853;SDS011;44154;45.506;-122.806;2022-11-27T00:38:50;0.35;;;0.30;;
50853;SDS011;44154;45.506;-122.806;2022-11-27T00:41:18;0.70;;;0.43;;
50853;SDS011;44154;45.506;-122.806;2022-11-27T00:43:46;0.63;;;0.32;;
50853;SDS011;44154;45.506;-122.806;2022-11-27T00:46:16;0.68;;;0.45;;
50853;SDS011;44154;45.506;-122.806;2022-11-27T00:48:44;0.40;;;0.40;;
50853;SDS011;44154;45.506;-122.806;2022-11-27T00:51:12;0.60;;;0.43;;
50853;SDS011;44154;45.506;-122.806;2022-11-27T00:53:41;0.77;;;0.40;;
50853;SDS011;44154;45.506;-122.806;2022-11-27T00:56:08;0.60;;;0.40;;
50853;SDS011;44154;45.506;-122.806;2022-11-27T00:58:39;0.90;;;0.50;;
50853;SDS011;44154;45.506;-122.806;2022-11-27T01:01:06;0.45;;;0.40;;
50853;SDS011;44154;45.506;-122.806;2022-11-27T01:03:33;0.70;;;0.40;;
50853;SDS011;44154;45.506;-122.806;2022-11-27T01:06:03;0.75;;;0.50;;
50853;SDS011;44154;45.506;-122.806;2022-11-27T01:08:32;0.70;;;0.40;;
50853;SDS011;44154;45.506;-122.806;2022-11-27T01:10:59;0.98;;;0.40;;
50853;SDS011;44154;45.506;-122.806;2022-11-27T01:13:26;0.60;;;0.45;;
50853;SDS011;44154;45.506;-122.806;2022-11-27T01:16:06;0.80;;;0.70;;
50853;SDS011;44154;45.506;-122.806;2022-11-27T01:18:36;0.50;;;0.40;;
50853;SDS011;44154;45.506;-122.806;2022-11-27T01:21:04;0.77;;;0.40;;
50853;SDS011;44154;45.506;-122.806;2022-11-27T01:23:31;0.60;;;0.40;;
50853;SDS011;44154;45.506;-122.806;2022-11-27T01:26:01;0.68;;;0.40;;
50853;SDS011;44154;45.506;-122.806;2022-11-27T01:28:29;1.05;;;0.50;;
50853;SDS011;44154;45.506;-122.806;2022-11-27T01:30:56;0.70;;;0.50;;
50853;SDS011;44154;45.506;-122.806;2022-11-27T01:33:22;0.60;;;0.50;;
50853;SDS011;44154;45.506;-122.806;2022-11-27T01:35:55;0.98;;;0.50;;
50853;SDS011;44154;45.506;-122.806;2022-11-27T01:38:23;0.45;;;0.35;;
50853;SDS011;44154;45.506;-122.806;2022-11-27T01:43:37;1.02;;;0.70;;
50853;SDS011;44154;45.506;-122.806;2022-11-27T01:48:49;0.80;;;0.50;;
50853;SDS011;44154;45.506;-122.806;2022-11-27T01:51:18;1.10;;;0.60;;
50853;SDS011;44154;45.506;-122.806;2022-11-27T01:53:47;0.60;;;0.50;;
50853;SDS011;44154;45.506;-122.806;2022-11-27T01:56:14;0.90;;;0.57;;
50853;SDS011;44154;45.506;-122.806;2022-11-27T01:58:41;1.00;;;0.80;;
50853;SDS011;44154;45.506;-122.806;2022-11-27T02:01:07;0.70;;;0.57;;
50853;SDS011;44154;45.506;-122.806;2022-11-27T02:03:33;1.25;;;0.70;;
50853;SDS011;44154;45.506;-122.806;2022-11-27T02:05:59;0.98;;;0.73;;
50853;SDS011;44154;45.506;-122.806;2022-11-27T02:08:26;1.00;;;0.80;;
50853;SDS011;44154;45.506;-122.806;2022-11-27T02:10:53;1.15;;;0.60;;
50853;SDS011;44154;45.506;-122.806;2022-11-27T02:19:13;0.90;;;0.60;;
50853;SDS011;44154;45.506;-122.806;2022-11-27T02:22:07;0.93;;;0.60;;
50853;SDS011;44154;45.506;-122.806;2022-11-27T02:24:53;1.05;;;0.77;;
50853;SDS011;44154;45.506;-122.806;2022-11-27T02:30:08;1.17;;;0.80;;
50853;SDS011;44154;45.506;-122.806;2022-11-27T02:32:37;1.10;;;0.80;;
50853;SDS011;44154;45.506;-122.806;2022-11-27T02:35:31;0.98;;;0.70;;
50853;SDS011;44154;45.506;-122.806;2022-11-27T02:38:07;0.70;;;0.50;;
50853;SDS011;44154;45.506;-122.806;2022-11-27T02:43:19;0.90;;;0.60;;
50853;SDS011;44154;45.506;-122.806;2022-11-27T02:45:51;0.80;;;0.50;;
50853;SDS011;44154;45.506;-122.806;2022-11-27T02:48:23;1.23;;;0.60;;
50853;SDS011;44154;45.506;-122.806;2022-11-27T02:50:55;1.33;;;0.60;;
50853;SDS011;44154;45.506;-122.806;2022-11-27T02:53:26;0.90;;;0.65;;
50853;SDS011;44154;45.506;-122.806;2022-11-27T02:55:57;1.00;;;0.68;;
50853;SDS011;44154;45.506;-122.806;2022-11-27T02:58:25;2.00;;;0.90;;
50853;SDS011;44154;45.506;-122.806;2022-11-27T03:00:53;0.85;;;0.70;;
50853;SDS011;44154;45.506;-122.806;2022-11-27T03:03:23;0.80;;;0.60;;
50853;SDS011;44154;45.506;-122.806;2022-11-27T03:05:54;0.57;;;0.50;;
50853;SDS011;44154;45.506;-122.806;2022-11-27T03:08:32;1.05;;;0.63;;
50853;SDS011;44154;45.506;-122.806;2022-11-27T03:11:10;0.82;;;0.60;;
50853;SDS011;44154;45.506;-122.806;2022-11-27T03:13:40;1.33;;;0.70;;
50853;SDS011;44154;45.506;-122.806;2022-11-27T03:19:22;0.98;;;0.60;;
50853;SDS011;44154;45.506;-122.806;2022-11-27T03:21:52;0.90;;;0.70;;
50853;SDS011;44154;45.506;-122.806;2022-11-27T03:24:22;1.08;;;0.60;;
50853;SDS011;44154;45.506;-122.806;2022-11-27T03:26:48;1.20;;;0.70;;
50853;SDS011;44154;45.506;-122.806;2022-11-27T03:29:24;1.00;;;0.73;;
50853;SDS011;44154;45.506;-122.806;2022-11-27T03:31:56;1.45;;;0.88;;
50853;SDS011;44154;45.506;-122.806;2022-11-27T03:34:22;0.70;;;0.65;;
50853;SDS011;44154;45.506;-122.806;2022-11-27T03:36:49;0.75;;;0.60;;
50853;SDS011;44154;45.506;-122.806;2022-11-27T03:39:15;1.23;;;0.60;;
50853;SDS011;44154;45.506;-122.806;2022-11-27T03:44:47;0.80;;;0.47;;
50853;SDS011;44154;45.506;-122.806;2022-11-27T03:53:06;1.17;;;0.85;;
50853;SDS011;44154;45.506;-122.806;2022-11-27T03:55:41;0.60;;;0.50;;
50853;SDS011;44154;45.506;-122.806;2022-11-27T03:58:21;1.02;;;0.80;;
50853;SDS011;44154;45.506;-122.806;2022-11-27T04:01:11;0.90;;;0.63;;
50853;SDS011;44154;45.506;-122.806;2022-11-27T04:03:39;1.00;;;0.60;;
50853;SDS011;44154;45.506;-122.806;2022-11-27T04:06:06;0.95;;;0.60;;
50853;SDS011;44154;45.506;-122.806;2022-11-27T04:08:32;1.05;;;0.65;;
50853;SDS011;44154;45.506;-122.806;2022-11-27T04:10:58;0.93;;;0.60;;
50853;SDS011;44154;45.506;-122.806;2022-11-27T04:13:24;1.50;;;0.90;;
50853;SDS011;44154;45.506;-122.806;2022-11-27T04:15:50;1.10;;;0.70;;
50853;SDS011;44154;45.506;-122.806;2022-11-27T04:18:17;1.48;;;0.70;;
50853;SDS011;44154;45.506;-122.806;2022-11-27T04:20:43;1.08;;;0.57;;
50853;SDS011;44154;45.506;-122.806;2022-11-27T04:23:09;1.20;;;0.65;;
50853;SDS011;44154;45.506;-122.806;2022-11-27T04:25:35;1.10;;;0.90;;
50853;SDS011;44154;45.506;-122.806;2022-11-27T04:28:01;1.38;;;0.80;;
50853;SDS011;44154;45.506;-122.806;2022-11-27T04:30:28;1.15;;;0.70;;
50853;SDS011;44154;45.506;-122.806;2022-11-27T04:32:54;1.25;;;0.70;;
50853;SDS011;44154;45.506;-122.806;2022-11-27T04:35:20;1.10;;;0.50;;
50853;SDS011;44154;45.506;-122.806;2022-11-27T04:37:46;1.10;;;0.75;;
50853;SDS011;44154;45.506;-122.806;2022-11-27T04:40:12;1.30;;;0.75;;
50853;SDS011;44154;45.506;-122.806;2022-11-27T04:42:39;1.13;;;0.73;;
50853;SDS011;44154;45.506;-122.806;2022-11-27T04:45:05;0.98;;;0.63;;
50853;SDS011;44154;45.506;-122.806;2022-11-27T04:47:32;1.20;;;0.70;;
50853;SDS011;44154;45.506;-122.806;2022-11-27T04:49:59;1.10;;;0.63;;
50853;SDS011;44154;45.506;-122.806;2022-11-27T04:52:25;1.77;;;1.00;;
50853;SDS011;44154;45.506;-122.806;2022-11-27T04:54:51;1.00;;;0.70;;
50853;SDS011;44154;45.506;-122.806;2022-11-27T04:57:17;1.02;;;0.70;;
50853;SDS011;44154;45.506;-122.806;2022-11-27T04:59:44;0.98;;;0.60;;
50853;SDS011;44154;45.506;-122.806;2022-11-27T05:02:10;1.05;;;0.80;;
50853;SDS011;44154;45.506;-122.806;2022-11-27T05:04:36;0.82;;;0.65;;
50853;SDS011;44154;45.506;-122.806;2022-11-27T05:07:03;1.15;;;0.70;;
50853;SDS011;44154;45.506;-122.806;2022-11-27T05:09:29;0.65;;;0.60;;
50853;SDS011;44154;45.506;-122.806;2022-11-27T05:11:55;1.02;;;0.75;;
50853;SDS011;44154;45.506;-122.806;2022-11-27T05:14:21;0.90;;;0.60;;
50853;SDS011;44154;45.506;-122.806;2022-11-27T05:16:54;0.90;;;0.60;;
50853;SDS011;44154;45.506;-122.806;2022-11-27T05:19:23;1.00;;;0.52;;
50853;SDS011;44154;45.506;-122.806;2022-11-27T05:21:51;1.55;;;0.80;;
50853;SDS011;44154;45.506;-122.806;2022-11-27T05:24:18;1.13;;;0.82;;
50853;SDS011;44154;45.506;-122.806;2022-11-27T05:26:46;1.00;;;0.50;;
50853;SDS011;44154;45.506;-122.806;2022-11-27T05:29:12;0.70;;;0.50;;
50853;SDS011;44154;45.506;-122.806;2022-11-27T05:31:39;0.82;;;0.50;;
50853;SDS011;44154;45.506;-122.806;2022-11-27T05:34:06;0.63;;;0.50;;
50853;SDS011;44154;45.506;-122.806;2022-11-27T05:36:33;1.00;;;0.60;;
50853;SDS011;44154;45.506;-122.806;2022-11-27T05:39:00;0.88;;;0.70;;
50853;SDS011;44154;45.506;-122.806;2022-11-27T05:41:30;0.88;;;0.60;;
50853;SDS011;44154;45.506;-122.806;2022-11-27T05:43:57;0.95;;;0.65;;
50853;SDS011;44154;45.506;-122.806;2022-11-27T05:46:23;0.88;;;0.57;;
50853;SDS011;44154;45.506;-122.806;2022-11-27T05:48:49;0.90;;;0.60;;
50853;SDS011;44154;45.506;-122.806;2022-11-27T05:51:16;0.98;;;0.63;;
50853;SDS011;44154;45.506;-122.806;2022-11-27T05:53:43;1.00;;;0.68;;
50853;SDS011;44154;45.506;-122.806;2022-11-27T05:56:11;0.77;;;0.60;;
50853;SDS011;44154;45.506;-122.806;2022-11-27T05:58:40;0.80;;;0.57;;
50853;SDS011;44154;45.506;-122.806;2022-11-27T06:01:08;0.88;;;0.60;;
50853;SDS011;44154;45.506;-122.806;2022-11-27T06:03:35;1.20;;;0.70;;
50853;SDS011;44154;45.506;-122.806;2022-11-27T06:06:06;0.98;;;0.40;;
50853;SDS011;44154;45.506;-122.806;2022-11-27T06:08:35;1.05;;;0.70;;
50853;SDS011;44154;45.506;-122.806;2022-11-27T06:11:05;0.80;;;0.55;;
50853;SDS011;44154;45.506;-122.806;2022-11-27T06:13:33;1.23;;;0.60;;
50853;SDS011;44154;45.506;-122.806;2022-11-27T06:16:03;1.13;;;0.60;;
50853;SDS011;44154;45.506;-122.806;2022-11-27T06:18:33;1.70;;;0.80;;
50853;SDS011;44154;45.506;-122.806;2022-11-27T06:20:59;1.38;;;0.60;;
50853;SDS011;44154;45.506;-122.806;2022-11-27T06:23:29;0.73;;;0.55;;
50853;SDS011;44154;45.506;-122.806;2022-11-27T06:25:55;0.75;;;0.50;;
50853;SDS011;44154;45.506;-122.806;2022-11-27T06:28:22;0.82;;;0.52;;
50853;SDS011;44154;45.506;-122.806;2022-11-27T06:30:48;0.93;;;0.68;;
50853;SDS011;44154;45.506;-122.806;2022-11-27T06:33:14;1.05;;;0.60;;
50853;SDS011;44154;45.506;-122.806;2022-11-27T06:35:40;0.57;;;0.50;;
50853;SDS011;44154;45.506;-122.806;2022-11-27T06:38:07;1.02;;;0.50;;
50853;SDS011;44154;45.506;-122.806;2022-11-27T06:40:33;0.88;;;0.45;;
50853;SDS011;44154;45.506;-122.806;2022-11-27T06:42:59;0.60;;;0.40;;
50853;SDS011;44154;45.506;-122.806;2022-11-27T06:45:25;0.65;;;0.50;;
50853;SDS011;44154;45.506;-122.806;2022-11-27T06:47:51;1.05;;;0.60;;
50853;SDS011;44154;45.506;-122.806;2022-11-27T06:50:17;0.70;;;0.38;;
50853;SDS011;44154;45.506;-122.806;2022-11-27T06:52:44;0.80;;;0.50;;
50853;SDS011;44154;45.506;-122.806;2022-11-27T06:55:10;1.42;;;0.50;;
50853;SDS011;44154;45.506;-122.806;2022-11-27T06:57:39;0.98;;;0.60;;
50853;SDS011;44154;45.506;-122.806;2022-11-27T07:00:05;1.00;;;0.50;;
50853;SDS011;44154;45.506;-122.806;2022-11-27T07:02:32;0.80;;;0.40;;
50853;SDS011;44154;45.506;-122.806;2022-11-27T07:04:58;0.60;;;0.40;;
50853;SDS011;44154;45.506;-122.806;2022-11-27T07:07:24;0.70;;;0.50;;
50853;SDS011;44154;45.506;-122.806;2022-11-27T07:09:50;0.60;;;0.40;;
50853;SDS011;44154;45.506;-122.806;2022-11-27T07:12:17;0.90;;;0.50;;
50853;SDS011;44154;45.506;-122.806;2022-11-27T07:14:43;1.13;;;0.50;;
50853;SDS011;44154;45.506;-122.806;2022-11-27T07:17:09;0.75;;;0.40;;
50853;SDS011;44154;45.506;-122.806;2022-11-27T07:19:35;1.35;;;0.50;;
50853;SDS011;44154;45.506;-122.806;2022-11-27T07:22:01;0.65;;;0.40;;
50853;SDS011;44154;45.506;-122.806;2022-11-27T07:24:27;0.68;;;0.40;;
50853;SDS011;44154;45.506;-122.806;2022-11-27T07:26:54;0.98;;;0.55;;
50853;SDS011;44154;45.506;-122.806;2022-11-27T07:29:20;0.60;;;0.35;;
50853;SDS011;44154;45.506;-122.806;2022-11-27T07:31:46;0.75;;;0.50;;
50853;SDS011;44154;45.506;-122.806;2022-11-27T07:34:15;0.90;;;0.40;;
50853;SDS011;44154;45.506;-122.806;2022-11-27T07:36:41;0.77;;;0.50;;
50853;SDS011;44154;45.506;-122.806;2022-11-27T07:39:07;1.05;;;0.50;;
50853;SDS011;44154;45.506;-122.806;2022-11-27T07:41:34;0.52;;;0.40;;
50853;SDS011;44154;45.506;-122.806;2022-11-27T07:44:00;0.77;;;0.40;;
50853;SDS011;44154;45.506;-122.806;2022-11-27T07:46:27;0.55;;;0.30;;
50853;SDS011;44154;45.506;-122.806;2022-11-27T07:48:54;0.85;;;0.40;;
50853;SDS011;44154;45.506;-122.806;2022-11-27T07:51:20;0.88;;;0.50;;
50853;SDS011;44154;45.506;-122.806;2022-11-27T07:53:47;0.85;;;0.40;;
50853;SDS011;44154;45.506;-122.806;2022-11-27T07:56:16;0.52;;;0.40;;
50853;SDS011;44154;45.506;-122.806;2022-11-27T07:58:43;0.57;;;0.30;;
50853;SDS011;44154;45.506;-122.806;2022-11-27T08:01:11;0.63;;;0.32;;
50853;SDS011;44154;45.506;-122.806;2022-11-27T08:03:39;0.50;;;0.30;;
50853;SDS011;44154;45.506;-122.806;2022-11-27T08:06:15;0.57;;;0.30;;
50853;SDS011;44154;45.506;-122.806;2022-11-27T08:08:42;0.70;;;0.40;;
50853;SDS011;44154;45.506;-122.806;2022-11-27T08:11:19;0.70;;;0.30;;
50853;SDS011;44154;45.506;-122.806;2022-11-27T08:13:54;0.55;;;0.30;;
50853;SDS011;44154;45.506;-122.806;2022-11-27T08:16:22;0.73;;;0.50;;
50853;SDS011;44154;45.506;-122.806;2022-11-27T08:18:48;0.40;;;0.30;;
50853;SDS011;44154;45.506;-122.806;2022-11-27T08:21:14;0.93;;;0.43;;
50853;SDS011;44154;45.506;-122.806;2022-11-27T08:23:41;0.52;;;0.30;;
50853;SDS011;44154;45.506;-122.806;2022-11-27T08:26:07;0.40;;;0.40;;
50853;SDS011;44154;45.506;-122.806;2022-11-27T08:28:34;0.63;;;0.30;;
50853;SDS011;44154;45.506;-122.806;2022-11-27T08:31:02;0.75;;;0.30;;
50853;SDS011;44154;45.506;-122.806;2022-11-27T08:33:29;0.55;;;0.30;;
50853;SDS011;44154;45.506;-122.806;2022-11-27T08:35:56;0.60;;;0.30;;
50853;SDS011;44154;45.506;-122.806;2022-11-27T08:38:22;0.60;;;0.40;;
50853;SDS011;44154;45.506;-122.806;2022-11-27T08:40:59;0.68;;;0.30;;
50853;SDS011;44154;45.506;-122.806;2022-11-27T08:43:27;0.73;;;0.35;;
50853;SDS011;44154;45.506;-122.806;2022-11-27T08:45:54;1.20;;;0.40;;
50853;SDS011;44154;45.506;-122.806;2022-11-27T08:48:21;0.50;;;0.25;;
50853;SDS011;44154;45.506;-122.806;2022-11-27T08:50:48;0.20;;;0.20;;
50853;SDS011;44154;45.506;-122.806;2022-11-27T08:53:14;0.47;;;0.20;;
50853;SDS011;44154;45.506;-122.806;2022-11-27T08:55:41;0.60;;;0.30;;
50853;SDS011;44154;45.506;-122.806;2022-11-27T08:58:08;0.50;;;0.30;;
50853;SDS011;44154;45.506;-122.806;2022-11-27T09:00:35;0.40;;;0.30;;
50853;SDS011;44154;45.506;-122.806;2022-11-27T09:03:02;0.50;;;0.35;;
50853;SDS011;44154;45.506;-122.806;2022-11-27T09:05:29;0.47;;;0.30;;
50853;SDS011;44154;45.506;-122.806;2022-11-27T09:07:56;0.45;;;0.30;;
50853;SDS011;44154;45.506;-122.806;2022-11-27T09:10:24;0.52;;;0.30;;
50853;SDS011;44154;45.506;-122.806;2022-11-27T09:12:50;0.40;;;0.28;;
50853;SDS011;44154;45.506;-122.806;2022-11-27T09:15:17;0.43;;;0.30;;
50853;SDS011;44154;45.506;-122.806;2022-11-27T09:17:43;0.65;;;0.40;;
50853;SDS011;44154;45.506;-122.806;2022-11-27T09:20:09;0.75;;;0.35;;
50853;SDS011;44154;45.506;-122.806;2022-11-27T09:22:38;0.30;;;0.20;;
50853;SDS011;44154;45.506;-122.806;2022-11-27T09:25:04;0.35;;;0.30;;
50853;SDS011;44154;45.506;-122.806;2022-11-27T09:27:31;0.40;;;0.28;;
50853;SDS011;44154;45.506;-122.806;2022-11-27T09:29:57;0.35;;;0.25;;
50853;SDS011;44154;45.506;-122.806;2022-11-27T09:32:24;0.45;;;0.25;;
50853;SDS011;44154;45.506;-122.806;2022-11-27T09:34:50;0.80;;;0.40;;
50853;SDS011;44154;45.506;-122.806;2022-11-27T09:37:16;0.50;;;0.20;;
50853;SDS011;44154;45.506;-122.806;2022-11-27T09:39:43;0.60;;;0.30;;
50853;SDS011;44154;45.506;-122.806;2022-11-27T09:42:15;0.50;;;0.30;;
50853;SDS011;44154;45.506;-122.806;2022-11-27T09:44:55;0.75;;;0.30;;
50853;SDS011;44154;45.506;-122.806;2022-11-27T09:50:11;0.30;;;0.20;;
50853;SDS011;44154;45.506;-122.806;2022-11-27T09:55:13;0.38;;;0.30;;
50853;SDS011;44154;45.506;-122.806;2022-11-27T09:57:51;0.40;;;0.30;;
50853;SDS011;44154;45.506;-122.806;2022-11-27T10:00:23;0.93;;;0.30;;
50853;SDS011;44154;45.506;-122.806;2022-11-27T10:02:49;1.02;;;0.25;;
50853;SDS011;44154;45.506;-122.806;2022-11-27T10:07:54;0.43;;;0.30;;
50853;SDS011;44154;45.506;-122.806;2022-11-27T10:13:31;0.22;;;0.17;;
50853;SDS011;44154;45.506;-122.806;2022-11-27T10:16:06;0.25;;;0.20;;
50853;SDS011;44154;45.506;-122.806;2022-11-27T10:18:57;0.22;;;0.20;;
50853;SDS011;44154;45.506;-122.806;2022-11-27T10:27:17;0.63;;;0.20;;
50853;SDS011;44154;45.506;-122.806;2022-11-27T10:29:51;0.30;;;0.30;;
50853;SDS011;44154;45.506;-122.806;2022-11-27T10:32:27;0.40;;;0.25;;
50853;SDS011;44154;45.506;-122.806;2022-11-27T10:34:59;0.30;;;0.20;;
50853;SDS011;44154;45.506;-122.806;2022-11-27T10:37:39;0.47;;;0.30;;
50853;SDS011;44154;45.506;-122.806;2022-11-27T10:48:04;0.40;;;0.30;;
50853;SDS011;44154;45.506;-122.806;2022-11-27T10:50:31;0.63;;;0.38;;
50853;SDS011;44154;45.506;-122.806;2022-11-27T10:53:03;0.50;;;0.28;;
50853;SDS011;44154;45.506;-122.806;2022-11-27T11:01:13;0.20;;;0.20;;
50853;SDS011;44154;45.506;-122.806;2022-11-27T11:03:42;0.52;;;0.38;;
50853;SDS011;44154;45.506;-122.806;2022-11-27T11:06:13;0.30;;;0.20;;
50853;SDS011;44154;45.506;-122.806;2022-11-27T11:08:43;0.45;;;0.22;;
50853;SDS011;44154;45.506;-122.806;2022-11-27T11:11:09;0.22;;;0.20;;
50853;SDS011;44154;45.506;-122.806;2022-11-27T11:18:48;0.57;;;0.20;;
50853;SDS011;44154;45.506;-122.806;2022-11-27T11:23:56;0.52;;;0.32;;
50853;SDS011;44154;45.506;-122.806;2022-11-27T11:26:31;0.52;;;0.30;;
50853;SDS011;44154;45.506;-122.806;2022-11-27T11:29:29;0.20;;;0.20;;
50853;SDS011;44154;45.506;-122.806;2022-11-27T11:32:04;0.50;;;0.30;;
50853;SDS011;44154;45.506;-122.806;2022-11-27T11:34:44;0.40;;;0.20;;
50853;SDS011;44154;45.506;-122.806;2022-11-27T11:37:33;0.63;;;0.30;;
50853;SDS011;44154;45.506;-122.806;2022-11-27T11:42:34;0.43;;;0.30;;
50853;SDS011;44154;45.506;-122.806;2022-11-27T11:47:51;0.20;;;0.20;;
50853;SDS011;44154;45.506;-122.806;2022-11-27T11:50:45;0.30;;;0.20;;
50853;SDS011;44154;45.506;-122.806;2022-11-27T11:53:37;0.52;;;0.20;;
50853;SDS011;44154;45.506;-122.806;2022-11-27T11:56:13;0.30;;;0.20;;
50853;SDS011;44154;45.506;-122.806;2022-11-27T12:01:52;0.55;;;0.20;;
50853;SDS011;44154;45.506;-122.806;2022-11-27T12:10:21;0.40;;;0.22;;
50853;SDS011;44154;45.506;-122.806;2022-11-27T12:32:04;0.60;;;0.30;;
50853;SDS011;44154;45.506;-122.806;2022-11-27T12:45:24;0.40;;;0.20;;
50853;SDS011;44154;45.506;-122.806;2022-11-27T12:48:05;0.70;;;0.30;;
50853;SDS011;44154;45.506;-122.806;2022-11-27T12:50:46;0.73;;;0.20;;
50853;SDS011;44154;45.506;-122.806;2022-11-27T12:53:24;0.40;;;0.27;;
50853;SDS011;44154;45.506;-122.806;2022-11-27T12:55:59;0.47;;;0.20;;
50853;SDS011;44154;45.506;-122.806;2022-11-27T12:58:40;0.40;;;0.30;;
50853;SDS011;44154;45.506;-122.806;2022-11-27T13:01:25;0.82;;;0.50;;
50853;SDS011;44154;45.506;-122.806;2022-11-27T13:12:14;0.22;;;0.20;;
50853;SDS011;44154;45.506;-122.806;2022-11-27T13:14:49;0.47;;;0.20;;
50853;SDS011;44154;45.506;-122.806;2022-11-27T13:17:22;0.45;;;0.30;;
50853;SDS011;44154;45.506;-122.806;2022-11-27T13:19:54;0.60;;;0.30;;
50853;SDS011;44154;45.506;-122.806;2022-11-27T13:22:38;0.25;;;0.20;;
50853;SDS011;44154;45.506;-122.806;2022-11-27T13:25:09;0.40;;;0.30;;
50853;SDS011;44154;45.506;-122.806;2022-11-27T13:27:39;0.52;;;0.30;;
50853;SDS011;44154;45.506;-122.806;2022-11-27T13:30:16;0.70;;;0.32;;
50853;SDS011;44154;45.506;-122.806;2022-11-27T13:32:52;0.52;;;0.30;;
50853;SDS011;44154;45.506;-122.806;2022-11-27T13:35:27;0.38;;;0.20;;
50853;SDS011;44154;45.506;-122.806;2022-11-27T13:38:24;0.40;;;0.20;;
50853;SDS011;44154;45.506;-122.806;2022-11-27T13:40:52;0.22;;;0.20;;
50853;SDS011;44154;45.506;-122.806;2022-11-27T13:46:41;0.50;;;0.30;;
50853;SDS011;44154;45.506;-122.806;2022-11-27T13:48:49;0.70;;;0.30;;
50853;SDS011;44154;45.506;-122.806;2022-11-27T13:54:27;0.40;;;0.28;;
50853;SDS011;44154;45.506;-122.806;2022-11-27T13:56:54;0.35;;;0.25;;
50853;SDS011;44154;45.506;-122.806;2022-11-27T13:59:21;0.32;;;0.30;;
50853;SDS011;44154;45.506;-122.806;2022-11-27T14:01:52;0.30;;;0.20;;
50853;SDS011;44154;45.506;-122.806;2022-11-27T14:04:19;0.30;;;0.20;;
50853;SDS011;44154;45.506;-122.806;2022-11-27T14:06:50;0.30;;;0.20;;
50853;SDS011;44154;45.506;-122.806;2022-11-27T14:09:28;0.45;;;0.30;;
50853;SDS011;44154;45.506;-122.806;2022-11-27T14:11:57;0.50;;;0.30;;
50853;SDS011;44154;45.506;-122.806;2022-11-27T14:14:24;0.20;;;0.20;;
50853;SDS011;44154;45.506;-122.806;2022-11-27T14:16:56;0.43;;;0.30;;
50853;SDS011;44154;45.506;-122.806;2022-11-27T14:21:52;0.20;;;0.20;;
50853;SDS011;44154;45.506;-122.806;2022-11-27T14:26:48;0.25;;;0.25;;
50853;SDS011;44154;45.506;-122.806;2022-11-27T14:29:14;0.47;;;0.20;;
50853;SDS011;44154;45.506;-122.806;2022-11-27T14:31:41;0.38;;;0.20;;
50853;SDS011;44154;45.506;-122.806;2022-11-27T14:37:23;0.20;;;0.20;;
50853;SDS011;44154;45.506;-122.806;2022-11-27T14:39:51;0.43;;;0.28;;
50853;SDS011;44154;45.506;-122.806;2022-11-27T14:42:19;0.30;;;0.20;;
50853;SDS011;44154;45.506;-122.806;2022-11-27T14:44:47;0.40;;;0.20;;
50853;SDS011;44154;45.506;-122.806;2022-11-27T14:47:24;0.35;;;0.20;;
50853;SDS011;44154;45.506;-122.806;2022-11-27T14:49:54;0.40;;;0.20;;
50853;SDS011;44154;45.506;-122.806;2022-11-27T14:52:20;0.50;;;0.30;;
50853;SDS011;44154;45.506;-122.806;2022-11-27T14:54:47;0.28;;;0.20;;
50853;SDS011;44154;45.506;-122.806;2022-11-27T14:57:17;0.25;;;0.20;;
50853;SDS011;44154;45.506;-122.806;2022-11-27T15:00:13;0.30;;;0.20;;
50853;SDS011;44154;45.506;-122.806;2022-11-27T15:02:40;0.40;;;0.20;;
50853;SDS011;44154;45.506;-122.806;2022-11-27T15:05:15;0.20;;;0.20;;
50853;SDS011;44154;45.506;-122.806;2022-11-27T15:07:46;0.32;;;0.20;;
50853;SDS011;44154;45.506;-122.806;2022-11-27T15:10:35;0.15;;;0.10;;
50853;SDS011;44154;45.506;-122.806;2022-11-27T15:13:02;0.38;;;0.20;;
50853;SDS011;44154;45.506;-122.806;2022-11-27T15:15:32;0.20;;;0.13;;
50853;SDS011;44154;45.506;-122.806;2022-11-27T15:18:05;0.40;;;0.20;;
50853;SDS011;44154;45.506;-122.806;2022-11-27T15:23:14;0.25;;;0.20;;
50853;SDS011;44154;45.506;-122.806;2022-11-27T15:25:45;0.30;;;0.20;;
50853;SDS011;44154;45.506;-122.806;2022-11-27T15:28:34;0.60;;;0.45;;
50853;SDS011;44154;45.506;-122.806;2022-11-27T15:34:04;0.40;;;0.30;;
50853;SDS011;44154;45.506;-122.806;2022-11-27T15:37:12;0.40;;;0.20;;
50853;SDS011;44154;45.506;-122.806;2022-11-27T15:39:45;0.45;;;0.20;;
50853;SDS011;44154;45.506;-122.806;2022-11-27T15:42:16;0.73;;;0.20;;
50853;SDS011;44154;45.506;-122.806;2022-11-27T15:44:43;0.28;;;0.13;;
50853;SDS011;44154;45.506;-122.806;2022-11-27T15:47:21;0.20;;;0.17;;
50853;SDS011;44154;45.506;-122.806;2022-11-27T15:49:50;0.10;;;0.10;;
50853;SDS011;44154;45.506;-122.806;2022-11-27T15:52:17;0.10;;;0.10;;
50853;SDS011;44154;45.506;-122.806;2022-11-27T15:54:43;0.20;;;0.20;;
50853;SDS011;44154;45.506;-122.806;2022-11-27T15:57:09;0.30;;;0.20;;
50853;SDS011;44154;45.506;-122.806;2022-11-27T15:59:36;0.20;;;0.20;;
50853;SDS011;44154;45.506;-122.806;2022-11-27T16:02:03;0.20;;;0.13;;
50853;SDS011;44154;45.506;-122.806;2022-11-27T16:04:30;0.20;;;0.20;;
50853;SDS011;44154;45.506;-122.806;2022-11-27T16:06:56;0.30;;;0.20;;
50853;SDS011;44154;45.506;-122.806;2022-11-27T16:09:22;0.30;;;0.20;;
50853;SDS011;44154;45.506;-122.806;2022-11-27T16:11:48;0.30;;;0.20;;
50853;SDS011;44154;45.506;-122.806;2022-11-27T16:14:15;0.20;;;0.20;;
50853;SDS011;44154;45.506;-122.806;2022-11-27T16:16:41;0.13;;;0.10;;
50853;SDS011;44154;45.506;-122.806;2022-11-27T16:19:08;0.13;;;0.10;;
50853;SDS011;44154;45.506;-122.806;2022-11-27T16:21:36;0.10;;;0.10;;
50853;SDS011;44154;45.506;-122.806;2022-11-27T16:24:04;0.22;;;0.13;;
50853;SDS011;44154;45.506;-122.806;2022-11-27T16:26:32;0.30;;;0.10;;
50853;SDS011;44154;45.506;-122.806;2022-11-27T16:28:58;0.10;;;0.10;;
50853;SDS011;44154;45.506;-122.806;2022-11-27T16:31:25;0.20;;;0.10;;
50853;SDS011;44154;45.506;-122.806;2022-11-27T16:33:51;0.22;;;0.20;;
50853;SDS011;44154;45.506;-122.806;2022-11-27T16:36:18;0.10;;;0.10;;
50853;SDS011;44154;45.506;-122.806;2022-11-27T16:38:46;0.13;;;0.10;;
50853;SDS011;44154;45.506;-122.806;2022-11-27T16:41:14;0.20;;;0.10;;
50853;SDS011;44154;45.506;-122.806;2022-11-27T16:43:42;0.17;;;0.17;;